Time;durP1;ratioP1;P1;durP2;ratioP2;P2;SDS_P1;SDS_P2;PMS_P1;PMS_P2;Temp;Humidity;BMP_temperature;BMP_pressure;BME280_temperature;BME280_humidity;BME280_pressure;Samples;Min_cycle;Max_cycle;Signal;HPM_P1;HPM_P2
2023/10/28 00:03:35;;;;;;;8.10;2.15;;;;;;;13.24;100.00;98606.97;8263135;28;20041;-59
2023/10/28 00:07:36;;;;;;;14.07;2.92;;;;;;;13.16;100.00;98607.97;8265052;28;20033;-59
2023/10/28 00:11:37;;;;;;;9.05;2.15;;;;;;;13.21;100.00;98604.66;8265368;28;20262;-58
2023/10/28 00:15:38;;;;;;;7.18;1.52;;;;;;;13.24;100.00;98609.69;8259516;28;20177;-59
2023/10/28 00:19:39;;;;;;;2.05;1.20;;;;;;;13.27;100.00;98612.00;8292472;28;20037;-60
2023/10/28 00:23:39;;;;;;;8.65;1.60;;;;;;;13.24;100.00;98615.09;8315030;28;20044;-60
2023/10/28 00:27:41;;;;;;;7.75;1.98;;;;;;;13.22;100.00;98611.75;8317627;28;20084;-60
2023/10/28 00:31:41;;;;;;;6.70;1.17;;;;;;;13.23;100.00;98610.69;8317849;28;20037;-60
2023/10/28 00:35:42;;;;;;;4.80;1.23;;;;;;;13.19;100.00;98612.16;8315273;28;20045;-60
2023/10/28 00:39:42;;;;;;;9.27;1.40;;;;;;;13.13;100.00;98608.38;8316892;28;20088;-60
2023/10/28 00:43:44;;;;;;;6.25;1.45;;;;;;;13.12;100.00;98616.72;8318268;28;20049;-60
2023/10/28 00:47:48;;;;;;;5.38;1.10;;;;;;;13.22;100.00;98611.75;8317351;28;20045;-59
2023/10/28 00:51:49;;;;;;;6.78;1.52;;;;;;;13.22;100.00;98614.47;8319880;28;20038;-59
2023/10/28 00:55:51;;;;;;;8.52;1.17;;;;;;;13.19;100.00;98617.59;8315367;28;20089;-59
2023/10/28 00:59:53;;;;;;;5.45;1.08;;;;;;;13.15;100.00;98622.56;8315913;28;20405;-59
2023/10/28 01:03:55;;;;;;;2.10;0.80;;;;;;;13.23;100.00;98613.41;8313862;28;20030;-60
2023/10/28 01:07:58;;;;;;;6.55;1.00;;;;;;;13.21;100.00;98610.91;8318713;28;20034;-60
2023/10/28 01:11:59;;;;;;;6.15;1.17;;;;;;;13.25;100.00;98616.78;8315593;28;20037;-57
2023/10/28 01:16:00;;;;;;;7.35;1.50;;;;;;;13.31;100.00;98629.53;8317095;28;20516;-57
2023/10/28 01:20:00;;;;;;;10.45;1.67;;;;;;;13.30;100.00;98625.97;8316628;28;20117;-60
2023/10/28 01:24:01;;;;;;;8.93;1.40;;;;;;;13.30;100.00;98630.56;8314126;28;20277;-60
2023/10/28 01:28:02;;;;;;;5.57;0.85;;;;;;;13.30;100.00;98617.00;8265857;28;20127;-58
2023/10/28 01:32:03;;;;;;;3.55;1.52;;;;;;;13.32;100.00;98617.63;8262313;28;20530;-60
2023/10/28 01:36:04;;;;;;;2.55;0.75;;;;;;;13.27;100.00;98620.13;8259945;28;20068;-60
2023/10/28 01:40:12;;;;;;;6.18;1.15;;;;;;;13.24;100.00;98623.25;8259914;28;20678;-59
2023/10/28 01:44:14;;;;;;;2.15;0.65;;;;;;;13.20;100.00;98630.09;8261631;28;20273;-59
2023/10/28 01:48:14;;;;;;;8.90;1.20;;;;;;;13.21;100.00;98631.78;8257404;28;20413;-59
2023/10/28 01:52:15;;;;;;;7.13;1.25;;;;;;;13.19;100.00;98636.56;8261962;28;20339;-59
2023/10/28 01:56:16;;;;;;;4.90;0.80;;;;;;;13.15;100.00;98627.19;8309685;28;20038;-59
2023/10/28 02:00:17;;;;;;;2.33;0.80;;;;;;;13.09;100.00;98638.84;8315974;28;20041;-59
2023/10/28 02:04:17;;;;;;;4.43;0.82;;;;;;;13.08;100.00;98637.16;8312178;28;20054;-59
2023/10/28 02:08:18;;;;;;;3.83;0.82;;;;;;;13.14;100.00;98644.47;8319668;28;20367;-58
2023/10/28 02:12:18;;;;;;;1.73;0.73;;;;;;;13.12;100.00;98644.69;8311944;28;20120;-59
2023/10/28 02:16:20;;;;;;;1.77;0.70;;;;;;;13.15;100.00;98648.88;8316079;28;20061;-58
2023/10/28 02:20:20;;;;;;;2.42;0.80;;;;;;;13.05;100.00;98645.72;8313959;28;20037;-58
2023/10/28 02:24:20;;;;;;;6.53;1.00;;;;;;;13.06;100.00;98650.09;8314099;28;20040;-59
2023/10/28 02:28:21;;;;;;;1.60;0.60;;;;;;;12.95;100.00;98647.91;8299496;28;20037;-58
2023/10/28 02:32:21;;;;;;;1.17;0.65;;;;;;;12.83;100.00;98635.97;8316858;28;20061;-60
2023/10/28 02:36:22;;;;;;;2.10;0.60;;;;;;;12.78;100.00;98649.31;8299837;28;20124;-60
2023/10/28 02:40:23;;;;;;;1.95;0.50;;;;;;;12.81;100.00;98646.19;8312399;28;20106;-60
2023/10/28 02:44:24;;;;;;;3.45;1.10;;;;;;;12.92;100.00;98649.16;8315741;28;20387;-60
2023/10/28 02:48:25;;;;;;;2.88;0.60;;;;;;;12.94;100.00;98651.66;8343708;28;20117;-59
2023/10/28 02:52:26;;;;;;;5.30;0.75;;;;;;;12.94;100.00;98652.53;8310566;28;20041;-60
2023/10/28 02:56:27;;;;;;;2.55;0.85;;;;;;;12.93;100.00;98650.81;8312965;28;20025;-60
2023/10/28 03:00:28;;;;;;;2.33;0.70;;;;;;;12.97;100.00;98635.00;8316241;28;20076;-58
2023/10/28 03:04:28;;;;;;;7.22;1.48;;;;;;;12.87;100.00;98637.25;8266573;28;20088;-59
2023/10/28 03:08:29;;;;;;;2.25;0.70;;;;;;;12.82;100.00;98647.84;8262408;28;20129;-59
2023/10/28 03:12:29;;;;;;;0.82;0.30;;;;;;;12.69;100.00;98645.06;8255039;28;20645;-59
2023/10/28 03:16:31;;;;;;;1.38;0.45;;;;;;;12.66;100.00;98653.59;8263447;28;20351;-59
2023/10/28 03:20:32;;;;;;;1.08;0.40;;;;;;;12.65;100.00;98646.47;8264059;28;20048;-59
2023/10/28 03:24:33;;;;;;;2.13;0.52;;;;;;;12.64;100.00;98640.25;8261638;28;20203;-58
2023/10/28 03:28:33;;;;;;;2.72;0.40;;;;;;;12.58;100.00;98648.31;8260850;28;20037;-59
2023/10/28 03:32:34;;;;;;;1.98;0.77;;;;;;;12.47;100.00;98648.91;8307889;28;20049;-60
2023/10/28 03:36:34;;;;;;;1.45;0.55;;;;;;;12.33;100.00;98653.38;8317443;28;20049;-60
2023/10/28 03:40:38;;;;;;;0.98;0.38;;;;;;;12.29;100.00;98657.50;8318816;28;20041;-59
2023/10/28 03:44:39;;;;;;;1.27;0.40;;;;;;;12.19;100.00;98650.75;8317033;28;20067;-57
2023/10/28 03:48:39;;;;;;;4.45;0.77;;;;;;;12.00;100.00;98648.72;8318921;28;20115;-57
2023/10/28 03:52:40;;;;;;;2.97;0.40;;;;;;;12.04;100.00;98647.31;8274150;28;20202;-59
2023/10/28 03:56:40;;;;;;;0.70;0.32;;;;;;;12.13;100.00;98652.38;8295345;28;20044;-57
2023/10/28 04:00:41;;;;;;;3.83;0.60;;;;;;;12.07;100.00;98646.91;8293616;28;20294;-59
2023/10/28 04:04:41;;;;;;;0.43;0.30;;;;;;;12.13;100.00;98646.13;8268871;28;20227;-59
2023/10/28 04:08:42;;;;;;;0.50;0.22;;;;;;;12.22;100.00;98655.78;8268907;28;20122;-59
2023/10/28 04:12:43;;;;;;;2.17;0.30;;;;;;;12.17;100.00;98647.41;8268477;28;20684;-59
2023/10/28 04:16:43;;;;;;;0.80;0.30;;;;;;;12.19;100.00;98640.75;8306538;28;20037;-57
2023/10/28 04:20:44;;;;;;;0.80;0.38;;;;;;;12.19;100.00;98650.75;8318052;28;20606;-60
2023/10/28 04:24:45;;;;;;;3.47;1.15;;;;;;;12.19;100.00;98646.19;8259969;28;20354;-59
2023/10/28 04:28:45;;;;;;;1.05;0.50;;;;;;;12.23;100.00;98643.91;8269344;28;20188;-59
2023/10/28 04:32:45;;;;;;;1.75;0.60;;;;;;;12.21;100.00;98627.00;8231737;28;20400;-58
2023/10/28 04:36:46;;;;;;;2.20;0.65;;;;;;;12.25;100.00;98645.38;8226107;28;20152;-58
2023/10/28 04:40:47;;;;;;;0.68;0.40;;;;;;;12.28;100.00;98638.72;8225483;28;20115;-57
2023/10/28 04:44:47;;;;;;;0.52;0.43;;;;;;;12.29;100.00;98640.44;8225386;28;20045;-59
2023/10/28 04:48:48;;;;;;;3.22;0.40;;;;;;;12.31;100.00;98639.19;8228421;28;20061;-59
2023/10/28 04:52:48;;;;;;;2.47;0.50;;;;;;;12.25;100.00;98631.00;8266419;28;20131;-58
2023/10/28 04:56:49;;;;;;;3.28;0.60;;;;;;;12.25;100.00;98625.56;8265128;28;20695;-59
2023/10/28 05:00:49;;;;;;;1.42;0.70;;;;;;;12.25;100.00;98629.13;8311827;28;20045;-58
2023/10/28 05:04:50;;;;;;;1.33;0.60;;;;;;;12.24;100.00;98638.31;8322719;28;20116;-58
2023/10/28 05:08:50;;;;;;;1.65;0.60;;;;;;;12.21;100.00;98637.84;8323039;28;20041;-58
2023/10/28 05:12:51;;;;;;;4.50;0.90;;;;;;;12.15;100.00;98633.22;8322246;28;20052;-58
2023/10/28 05:16:52;;;;;;;3.20;0.85;;;;;;;12.20;100.00;98636.19;8322533;28;20395;-59
2023/10/28 05:20:53;;;;;;;5.32;0.90;;;;;;;12.17;100.00;98636.59;8322552;28;20037;-58
2023/10/28 05:24:54;;;;;;;1.00;0.60;;;;;;;12.17;100.00;98628.44;8321887;28;20065;-58
2023/10/28 05:28:57;;;;;;;2.00;0.88;;;;;;;12.08;100.00;98626.91;8322459;28;20099;-58
2023/10/28 05:33:00;;;;;;;4.22;0.88;;;;;;;12.18;100.00;98622.00;8307849;28;20045;-58
2023/10/28 05:37:01;;;;;;;2.20;0.82;;;;;;;12.18;100.00;98628.25;8320576;28;20066;-58
2023/10/28 05:41:01;;;;;;;3.00;0.90;;;;;;;12.24;100.00;98623.91;8325612;28;20065;-59
2023/10/28 05:45:02;;;;;;;1.95;0.70;;;;;;;12.20;100.00;98617.22;8316374;28;20091;-59
2023/10/28 05:49:02;;;;;;;2.92;0.70;;;;;;;12.16;100.00;98635.72;8308550;28;20029;-57
2023/10/28 05:53:03;;;;;;;3.35;0.88;;;;;;;12.07;100.00;98631.50;8262363;28;20155;-58
2023/10/28 05:57:05;;;;;;;2.45;0.88;;;;;;;11.97;100.00;98632.84;8263151;28;20041;-58
2023/10/28 06:01:05;;;;;;;2.75;0.95;;;;;;;11.89;100.00;98636.53;8264902;28;20045;-58
2023/10/28 06:05:06;;;;;;;2.53;0.95;;;;;;;11.84;100.00;98636.31;8265403;28;20045;-58
2023/10/28 06:09:09;;;;;;;3.95;1.10;;;;;;;11.80;100.00;98635.84;8260271;28;20041;-58
2023/10/28 06:13:10;;;;;;;3.85;1.00;;;;;;;11.89;100.00;98645.50;8262404;28;20051;-59
2023/10/28 06:17:10;;;;;;;5.78;1.08;;;;;;;11.98;100.00;98648.09;8271857;28;20491;-56
2023/10/28 06:21:11;;;;;;;4.57;1.17;;;;;;;11.93;100.00;98645.13;8320640;28;20530;-56
2023/10/28 06:25:14;;;;;;;2.53;1.20;;;;;;;12.03;100.00;98656.44;8319271;28;20143;-56
2023/10/28 06:29:14;;;;;;;2.58;1.33;;;;;;;12.12;100.00;98663.41;8320208;28;20420;-58
2023/10/28 06:33:16;;;;;;;1.75;1.27;;;;;;;12.26;100.00;98659.78;8290503;28;20049;-57
2023/10/28 06:37:17;;;;;;;6.97;1.10;;;;;;;12.26;100.00;98657.88;8315558;28;20092;-56
2023/10/28 06:41:18;;;;;;;3.03;1.10;;;;;;;12.42;100.00;98667.59;8315358;28;20080;-56
2023/10/28 06:45:19;;;;;;;6.53;1.90;;;;;;;12.33;100.00;98664.22;8319739;28;20043;-57
2023/10/28 06:49:20;;;;;;;3.58;1.83;;;;;;;12.40;100.00;98665.09;8321522;28;20038;-56
2023/10/28 06:53:21;;;;;;;3.75;1.88;;;;;;;12.49;100.00;98666.63;8324427;28;20049;-55
2023/10/28 06:57:22;;;;;;;3.60;1.98;;;;;;;12.51;100.00;98671.84;8324955;28;20037;-56
2023/10/28 07:01:22;;;;;;;4.35;1.40;;;;;;;12.51;100.00;98666.44;8322074;28;20069;-56
2023/10/28 07:05:26;;;;;;;2.97;1.40;;;;;;;12.59;100.00;98663.56;8323645;28;20040;-57
2023/10/28 07:09:26;;;;;;;3.75;1.23;;;;;;;12.62;100.00;98671.28;8318987;28;20057;-56
2023/10/28 07:13:27;;;;;;;1.95;0.80;;;;;;;12.61;100.00;98672.31;8325854;28;20045;-58
2023/10/28 07:17:27;;;;;;;2.70;0.95;;;;;;;12.64;100.00;98671.94;8323599;28;20124;-58
2023/10/28 07:21:27;;;;;;;1.10;0.68;;;;;;;12.69;100.00;98672.19;8326219;28;20041;-56
2023/10/28 07:25:28;;;;;;;1.15;0.60;;;;;;;12.71;100.00;98679.06;8324493;28;20565;-56
2023/10/28 07:29:29;;;;;;;1.63;0.80;;;;;;;12.69;100.00;98685.75;8325921;28;20034;-57
2023/10/28 07:33:30;;;;;;;0.88;0.68;;;;;;;12.68;100.00;98686.75;8324718;28;20041;-57
2023/10/28 07:37:31;;;;;;;4.85;1.20;;;;;;;12.77;100.00;98693.69;8317366;28;20075;-56
2023/10/28 07:41:31;;;;;;;3.08;0.63;;;;;;;12.83;100.00;98698.31;8324337;28;20041;-56
2023/10/28 07:45:33;;;;;;;2.58;1.17;;;;;;;12.78;100.00;98703.53;8320383;28;20037;-56
2023/10/28 07:49:34;;;;;;;1.83;1.00;;;;;;;12.80;100.00;98709.56;8328852;28;20041;-57
2023/10/28 07:53:34;;;;;;;3.15;1.10;;;;;;;12.78;100.00;98717.09;8318848;28;20064;-58
2023/10/28 07:57:34;;;;;;;2.20;1.23;;;;;;;12.80;100.00;98715.00;8323320;28;20384;-57
2023/10/28 08:01:35;;;;;;;5.22;1.60;;;;;;;12.95;100.00;98719.28;8323669;28;20041;-57
2023/10/28 08:05:35;;;;;;;2.85;1.00;;;;;;;13.03;100.00;98721.03;8318886;28;20267;-58
2023/10/28 08:09:36;;;;;;;3.22;1.48;;;;;;;13.09;100.00;98721.03;8323128;28;20046;-57
2023/10/28 08:13:37;;;;;;;3.25;1.60;;;;;;;13.14;100.00;98721.28;8317771;28;20455;-60
2023/10/28 08:17:38;;;;;;;2.65;1.40;;;;;;;13.22;100.00;98714.88;8322385;28;20117;-58
2023/10/28 08:21:38;;;;;;;2.55;1.35;;;;;;;13.32;100.00;98715.31;8323199;28;20495;-57
2023/10/28 08:25:38;;;;;;;4.85;1.08;;;;;;;13.51;100.00;98722.72;8323368;28;20133;-60
2023/10/28 08:29:39;;;;;;;2.97;1.05;;;;;;;13.50;100.00;98724.59;8318529;28;21674;-58
2023/10/28 08:33:41;;;;;;;2.65;1.10;;;;;;;13.57;100.00;98735.47;8317123;28;20046;-59
2023/10/28 08:37:41;;;;;;;2.47;1.25;;;;;;;13.69;100.00;98739.28;8317057;28;20042;-58
2023/10/28 08:41:42;;;;;;;3.72;0.90;;;;;;;13.76;100.00;98751.03;8316533;28;20665;-58
2023/10/28 08:45:45;;;;;;;5.13;0.90;;;;;;;13.90;100.00;98750.00;8320520;28;20049;-56
2023/10/28 08:49:48;;;;;;;3.47;1.13;;;;;;;14.03;100.00;98741.88;8321994;28;20057;-58
2023/10/28 08:53:50;;;;;;;4.70;0.70;;;;;;;14.28;100.00;98755.75;8320295;28;20041;-57
2023/10/28 08:57:51;;;;;;;2.45;1.45;;;;;;;14.52;100.00;98758.69;8315889;28;20033;-58
2023/10/28 09:01:52;;;;;;;2.97;1.35;;;;;;;14.65;100.00;98764.16;8321746;28;20037;-57
2023/10/28 09:05:53;;;;;;;2.72;0.40;;;;;;;14.79;100.00;98760.38;8322959;28;20037;-57
2023/10/28 09:09:58;;;;;;;1.27;0.38;;;;;;;14.92;100.00;98762.25;8323470;28;20038;-57
2023/10/28 09:13:59;;;;;;;2.58;0.52;;;;;;;15.39;99.63;98768.28;8321216;28;20104;-57
2023/10/28 09:18:01;;;;;;;2.58;0.32;;;;;;;15.78;96.38;98759.13;8323254;28;20099;-57
2023/10/28 09:22:02;;;;;;;4.65;0.40;;;;;;;15.93;94.52;98764.28;8322197;28;20041;-57
2023/10/28 09:26:04;;;;;;;0.65;0.30;;;;;;;15.92;94.99;98773.53;8322390;28;20041;-57
2023/10/28 09:30:08;;;;;;;2.60;0.30;;;;;;;15.84;94.07;98751.97;8322516;28;20049;-57
2023/10/28 09:34:08;;;;;;;2.55;0.45;;;;;;;15.80;95.31;98769.81;8321740;28;20529;-60
2023/10/28 09:38:11;;;;;;;1.63;0.30;;;;;;;15.84;95.98;98774.59;8322148;28;20387;-60
2023/10/28 09:42:12;;;;;;;0.80;0.30;;;;;;;15.93;94.47;98778.75;8318232;28;20037;-57
2023/10/28 09:46:18;;;;;;;1.67;0.40;;;;;;;16.01;95.21;98781.22;8322153;28;20491;-58
2023/10/28 09:50:28;;;;;;;0.75;0.25;;;;;;;16.30;92.49;98787.97;8321703;28;20128;-57
2023/10/28 09:54:34;;;;;;;1.30;0.30;;;;;;;16.66;88.83;98791.78;8321530;28;20048;-60
2023/10/28 09:58:45;;;;;;;2.25;0.40;;;;;;;17.95;84.83;98790.69;8321325;28;20042;-60
2023/10/28 10:03:09;;;;;;;3.45;0.43;;;;;;;17.44;86.44;98788.34;8321136;28;20037;-58
2023/10/28 10:07:10;;;;;;;1.08;0.65;;;;;;;18.00;82.58;98793.56;8317902;28;20365;-58
2023/10/28 10:11:10;;;;;;;4.55;1.10;;;;;;;20.69;72.58;98791.22;8320778;28;20057;-58
2023/10/28 10:15:13;;;;;;;3.03;0.90;;;;;;;20.85;66.75;98784.91;8320579;28;20045;-59
2023/10/28 10:19:22;;;;;;;4.82;1.02;;;;;;;21.67;62.43;98789.56;8320520;28;20041;-58
2023/10/28 10:23:22;;;;;;;11.10;1.23;;;;;;;19.77;65.83;98791.53;8320450;28;20129;-58
2023/10/28 10:27:42;;;;;;;3.92;1.02;;;;;;;18.08;70.65;98789.69;8320884;28;20495;-58
2023/10/28 10:31:49;;;;;;;8.25;1.58;;;;;;;17.42;72.41;98784.13;8318707;28;20041;-59
2023/10/28 10:35:51;;;;;;;14.40;2.80;;;;;;;17.17;74.58;98783.34;8320451;28;20148;-59
2023/10/28 10:39:53;;;;;;;9.90;1.52;;;;;;;17.25;74.63;98793.97;8320071;28;20040;-57
2023/10/28 10:43:54;;;;;;;12.90;2.42;;;;;;;17.73;74.06;98781.28;8320223;28;20426;-57
2023/10/28 10:47:55;;;;;;;14.10;4.15;;;;;;;17.97;73.87;98787.72;8320010;28;20131;-57
2023/10/28 10:51:58;;;;;;;9.35;2.15;;;;;;;17.96;72.28;98780.59;8320373;28;20117;-57
2023/10/28 10:55:58;;;;;;;9.80;2.03;;;;;;;17.91;73.05;98784.00;8318816;28;20056;-57
2023/10/28 11:00:00;;;;;;;12.90;2.03;;;;;;;17.86;74.80;98786.59;8320540;28;20037;-57
2023/10/28 11:04:02;;;;;;;6.03;0.90;;;;;;;17.86;74.35;98781.13;8315977;28;20484;-58
2023/10/28 11:08:04;;;;;;;6.63;1.15;;;;;;;17.61;75.56;98783.13;8320203;28;20042;-58
2023/10/28 11:12:04;;;;;;;10.60;1.50;;;;;;;17.52;76.60;98773.53;8319906;28;20111;-58
2023/10/28 11:16:17;;;;;;;8.25;1.50;;;;;;;17.43;76.59;98769.44;8320236;28;20045;-57
2023/10/28 11:20:20;;;;;;;11.50;2.00;;;;;;;17.48;76.28;98762.22;8319970;28;20041;-58
2023/10/28 11:24:22;;;;;;;8.23;1.63;;;;;;;17.65;75.16;98759.72;8318236;28;20038;-58
2023/10/28 11:28:32;;;;;;;13.32;2.78;;;;;;;17.38;76.75;98766.50;8318662;28;20033;-58
2023/10/28 11:32:41;;;;;;;7.55;1.25;;;;;;;17.39;75.99;98757.28;8315844;28;20037;-58
2023/10/28 11:36:42;;;;;;;10.10;1.77;;;;;;;17.52;75.68;98757.16;8319614;28;20446;-57
2023/10/28 11:40:42;;;;;;;6.30;0.77;;;;;;;17.80;75.08;98760.16;8325408;28;20108;-57
2023/10/28 11:44:48;;;;;;;4.00;0.98;;;;;;;19.88;67.16;98757.78;8325443;28;20034;-60
2023/10/28 11:48:48;;;;;;;4.30;0.82;;;;;;;19.88;66.36;98760.53;8324546;28;20431;-60
2023/10/28 11:52:49;;;;;;;8.25;1.33;;;;;;;19.24;67.99;98758.78;8324668;28;20511;-60
2023/10/28 11:56:49;;;;;;;4.05;0.60;;;;;;;19.56;67.67;98751.03;8325759;28;20316;-57
2023/10/28 12:00:53;;;;;;;4.32;0.73;;;;;;;19.04;69.34;98761.91;8325404;28;20453;-58
2023/10/28 12:04:54;;;;;;;5.85;1.10;;;;;;;19.10;69.80;98766.44;8325144;28;20150;-58
2023/10/28 12:08:57;;;;;;;6.30;0.70;;;;;;;19.22;70.35;98775.47;8324801;28;20034;-58
2023/10/28 12:12:58;;;;;;;4.38;0.80;;;;;;;19.36;68.46;98782.41;8324653;28;20392;-58
2023/10/28 12:16:58;;;;;;;3.00;0.68;;;;;;;19.02;68.60;98772.25;8325170;28;20037;-58
2023/10/28 12:21:00;;;;;;;4.53;0.80;;;;;;;18.80;70.65;98782.13;8324852;28;20037;-57
2023/10/28 12:25:01;;;;;;;5.20;0.73;;;;;;;18.26;71.95;98786.88;8324421;28;20124;-58
2023/10/28 12:29:03;;;;;;;7.03;1.17;;;;;;;17.94;73.85;98786.28;8324889;28;20033;-58
2023/10/28 12:33:04;;;;;;;6.43;0.90;;;;;;;18.09;73.37;98781.25;8319988;28;20052;-58
2023/10/28 12:37:04;;;;;;;6.00;1.60;;;;;;;19.40;69.64;98780.84;8322884;28;20045;-58
2023/10/28 12:41:06;;;;;;;4.90;0.52;;;;;;;20.26;65.13;98782.72;8322407;28;20603;-58
2023/10/28 12:45:08;;;;;;;0.70;0.50;;;;;;;19.81;65.31;98798.19;8323679;28;20042;-58
2023/10/28 12:49:09;;;;;;;3.55;0.75;;;;;;;19.03;67.77;98806.78;8319810;28;20068;-58
2023/10/28 12:53:10;;;;;;;4.90;0.95;;;;;;;18.49;68.96;98809.75;8317599;28;20124;-58
2023/10/28 12:57:11;;;;;;;3.95;1.02;;;;;;;18.46;71.19;98815.69;8322597;28;20059;-58
2023/10/28 13:01:12;;;;;;;4.05;0.77;;;;;;;18.29;70.74;98809.16;8344300;28;20500;-58
2023/10/28 13:05:12;;;;;;;5.78;2.42;;;;;;;18.70;72.02;98809.19;8320130;28;20124;-58
2023/10/28 13:09:13;;;;;;;2.30;0.90;;;;;;;18.90;71.22;98804.25;8320016;28;20041;-58
2023/10/28 13:13:14;;;;;;;2.25;0.40;;;;;;;18.75;70.77;98801.13;8320451;28;20140;-58
2023/10/28 13:17:15;;;;;;;1.85;0.35;;;;;;;18.63;71.20;98815.88;8319130;28;20120;-59
2023/10/28 13:21:16;;;;;;;1.95;0.25;;;;;;;18.42;72.55;98791.78;8312387;28;20037;-58
2023/10/28 13:25:16;;;;;;;5.82;0.40;;;;;;;18.72;71.86;98798.88;8320179;28;20042;-57
2023/10/28 13:29:17;;;;;;;2.00;0.40;;;;;;;19.04;71.04;98797.50;8315862;28;20037;-58
2023/10/28 13:33:18;;;;;;;1.10;0.40;;;;;;;18.57;71.49;98790.25;8340433;28;20056;-57
2023/10/28 13:37:20;;;;;;;0.50;0.20;;;;;;;18.28;71.74;98801.19;8319089;28;20041;-57
2023/10/28 13:41:20;;;;;;;1.25;0.28;;;;;;;18.23;72.39;98803.75;8318023;28;20043;-58
2023/10/28 13:45:20;;;;;;;0.80;0.40;;;;;;;18.02;75.25;98802.38;8317445;28;20037;-57
2023/10/28 13:49:23;;;;;;;0.77;0.20;;;;;;;18.00;78.21;98804.50;8317401;28;20573;-57
2023/10/28 13:53:23;;;;;;;0.50;0.20;;;;;;;18.18;75.44;98807.22;8318098;28;20074;-58
2023/10/28 13:57:24;;;;;;;1.85;0.32;;;;;;;17.92;75.97;98804.81;8312310;28;20037;-58
2023/10/28 14:01:24;;;;;;;2.78;0.30;;;;;;;17.84;76.30;98804.28;8317494;28;20104;-58
2023/10/28 14:05:25;;;;;;;0.75;0.15;;;;;;;17.61;77.48;98815.91;8318649;28;20084;-59
2023/10/28 14:09:25;;;;;;;1.85;0.20;;;;;;;17.68;75.57;98811.19;8316575;28;20037;-59
2023/10/28 14:13:28;;;;;;;1.55;0.43;;;;;;;17.46;77.73;98829.94;8317804;28;20129;-59
2023/10/28 14:17:29;;;;;;;2.55;0.20;;;;;;;17.59;77.32;98818.03;8315870;28;20042;-59
2023/10/28 14:21:29;;;;;;;1.25;0.17;;;;;;;17.71;77.46;98821.66;8317671;28;20040;-59
2023/10/28 14:25:30;;;;;;;0.73;0.20;;;;;;;17.59;78.56;98823.47;8317635;28;20052;-59
2023/10/28 14:29:30;;;;;;;0.82;0.15;;;;;;;17.39;79.23;98834.56;8320791;28;20053;-59
2023/10/28 14:33:31;;;;;;;1.17;0.47;;;;;;;17.24;80.63;98836.00;8317033;28;20523;-59
2023/10/28 14:37:32;;;;;;;1.30;0.20;;;;;;;17.07;81.51;98824.81;8318347;28;20038;-59
2023/10/28 14:41:34;;;;;;;1.20;0.65;;;;;;;16.96;82.60;98816.50;8312175;28;20129;-59
2023/10/28 14:45:35;;;;;;;0.70;0.22;;;;;;;16.91;82.89;98802.69;8311927;28;20549;-59
2023/10/28 14:49:35;;;;;;;1.38;0.20;;;;;;;16.78;84.07;98803.66;8317440;28;20417;-59
2023/10/28 14:53:36;;;;;;;0.70;0.10;;;;;;;16.65;84.19;98814.63;8318074;28;20124;-59
2023/10/28 14:57:37;;;;;;;1.45;0.20;;;;;;;16.66;85.81;98820.94;8317458;28;20411;-59
2023/10/28 15:01:37;;;;;;;1.77;0.30;;;;;;;16.67;86.22;98803.50;8315977;28;20087;-60
2023/10/28 15:05:41;;;;;;;0.38;0.13;;;;;;;16.65;86.42;98808.38;8317761;28;20041;-59
2023/10/28 15:09:46;;;;;;;0.30;0.10;;;;;;;16.66;86.45;98810.03;8318742;28;20060;-59
2023/10/28 15:13:48;;;;;;;1.05;0.20;;;;;;;16.56;87.16;98787.84;8319813;28;20049;-60
2023/10/28 15:17:51;;;;;;;0.10;0.10;;;;;;;16.55;86.69;98803.38;8323850;28;20037;-59
2023/10/28 15:21:51;;;;;;;2.05;0.10;;;;;;;16.56;86.66;98801.50;8323691;28;20454;-58
2023/10/28 15:25:52;;;;;;;1.75;0.10;;;;;;;16.58;86.58;98785.72;8323791;28;20045;-58
2023/10/28 15:29:52;;;;;;;1.27;0.22;;;;;;;16.55;85.62;98806.09;8324094;28;20041;-58
2023/10/28 15:33:54;;;;;;;1.73;0.30;;;;;;;16.52;85.85;98819.34;8322765;28;20059;-58
2023/10/28 15:37:54;;;;;;;0.60;0.22;;;;;;;16.44;86.88;98822.34;8323192;28;20038;-58
2023/10/28 15:41:55;;;;;;;2.17;0.20;;;;;;;16.29;88.37;98821.78;8319809;28;20110;-57
2023/10/28 15:45:56;;;;;;;0.77;0.30;;;;;;;16.31;87.84;98814.22;8321163;28;20470;-57
2023/10/28 15:49:57;;;;;;;0.50;0.20;;;;;;;16.18;89.11;98808.81;8315955;28;20037;-57
2023/10/28 15:53:57;;;;;;;2.13;0.30;;;;;;;16.12;90.03;98806.97;8319204;28;20048;-58
2023/10/28 15:57:59;;;;;;;0.32;0.10;;;;;;;16.15;90.19;98795.63;8319296;28;20403;-58
2023/10/28 16:02:00;;;;;;;0.47;0.20;;;;;;;16.10;90.75;98798.19;8321544;28;20119;-58
2023/10/28 16:06:03;;;;;;;1.77;0.40;;;;;;;16.13;90.22;98792.28;8321256;28;20034;-58
2023/10/28 16:10:07;;;;;;;0.93;0.30;;;;;;;16.03;91.26;98790.03;8343806;28;20038;-57
2023/10/28 16:14:08;;;;;;;1.02;0.40;;;;;;;15.89;92.27;98784.84;8321517;28;20161;-58
2023/10/28 16:18:09;;;;;;;1.63;0.20;;;;;;;15.99;90.88;98772.44;8321570;28;20037;-58
2023/10/28 16:22:09;;;;;;;1.83;0.43;;;;;;;15.99;91.14;98774.31;8320742;28;20089;-58
2023/10/28 16:26:09;;;;;;;4.00;0.80;;;;;;;15.89;91.64;98773.97;8322297;28;20515;-57
2023/10/28 16:30:11;;;;;;;2.47;0.50;;;;;;;15.83;91.88;98780.28;8321315;28;20037;-58
2023/10/28 16:34:12;;;;;;;0.85;0.40;;;;;;;15.78;92.80;98780.91;8317482;28;20114;-58
2023/10/28 16:38:12;;;;;;;1.42;0.52;;;;;;;15.76;92.84;98785.75;8320198;28;20049;-59
2023/10/28 16:42:13;;;;;;;1.90;0.40;;;;;;;15.70;93.09;98786.59;8317131;28;20118;-58
2023/10/28 16:46:15;;;;;;;0.82;0.25;;;;;;;15.84;91.32;98784.66;8312688;28;20095;-59
2023/10/28 16:50:15;;;;;;;2.67;0.43;;;;;;;15.84;90.72;98787.38;8320987;28;20069;-59
2023/10/28 16:54:16;;;;;;;1.23;0.40;;;;;;;15.99;89.16;98788.78;8320867;28;20045;-60
2023/10/28 16:58:17;;;;;;;0.57;0.40;;;;;;;15.93;89.38;98802.44;8320631;28;20041;-60
2023/10/28 17:02:18;;;;;;;1.42;0.40;;;;;;;15.92;89.63;98812.50;8320175;28;20045;-60
2023/10/28 17:06:18;;;;;;;2.83;1.00;;;;;;;15.86;89.80;98813.38;8318830;28;20037;-60
2023/10/28 17:10:18;;;;;;;2.90;1.10;;;;;;;15.66;91.55;98810.72;8342345;28;20092;-60
2023/10/28 17:14:19;;;;;;;1.70;1.00;;;;;;;15.52;92.90;98806.38;8318790;28;20037;-60
2023/10/28 17:18:19;;;;;;;1.73;0.73;;;;;;;15.48;93.36;98807.00;8320233;28;20487;-60
2023/10/28 17:22:20;;;;;;;2.65;0.63;;;;;;;15.48;93.00;98805.13;8318599;28;20120;-61
2023/10/28 17:26:20;;;;;;;1.75;0.93;;;;;;;15.44;92.79;98792.16;8320293;28;20041;-61
2023/10/28 17:30:21;;;;;;;5.28;2.67;;;;;;;15.45;93.22;98789.22;8315698;28;20060;-60
2023/10/28 17:34:21;;;;;;;6.13;1.98;;;;;;;15.32;94.07;98793.81;8318211;28;20041;-60
2023/10/28 17:38:27;;;;;;;2.42;0.80;;;;;;;15.30;93.42;98806.78;8319353;28;20124;-63
2023/10/28 17:42:27;;;;;;;2.55;0.85;;;;;;;15.41;92.12;98796.09;8318934;28;20561;-60
2023/10/28 17:46:27;;;;;;;2.40;1.00;;;;;;;15.43;91.08;98796.75;8316709;28;20387;-60
2023/10/28 17:50:29;;;;;;;2.08;0.75;;;;;;;15.42;90.95;98805.97;8318472;28;20754;-60
2023/10/28 17:54:29;;;;;;;2.53;0.70;;;;;;;15.30;91.69;98802.19;8318686;28;20103;-61
2023/10/28 17:58:30;;;;;;;4.88;0.90;;;;;;;15.21;92.11;98794.44;8318051;28;20039;-58
2023/10/28 18:02:31;;;;;;;2.47;1.27;;;;;;;15.16;92.93;98805.97;8318137;28;20330;-59
2023/10/28 18:06:31;;;;;;;1.25;0.88;;;;;;;15.09;93.92;98793.41;8318270;28;20041;-59
2023/10/28 18:10:32;;;;;;;2.15;1.17;;;;;;;15.06;94.35;98794.69;8311921;28;20215;-59
2023/10/28 18:14:32;;;;;;;1.35;1.00;;;;;;;14.97;94.84;98800.53;8316946;28;20038;-58
2023/10/28 18:18:33;;;;;;;2.28;0.88;;;;;;;15.10;94.52;98790.50;8318051;28;20083;-59
2023/10/28 18:22:34;;;;;;;1.90;0.80;;;;;;;15.19;93.41;98789.22;8317537;28;20038;-59
2023/10/28 18:26:35;;;;;;;5.13;0.90;;;;;;;15.34;92.71;98776.22;8316358;28;20585;-57
2023/10/28 18:30:36;;;;;;;3.10;0.70;;;;;;;15.36;92.03;98774.13;8316541;28;20048;-57
2023/10/28 18:34:36;;;;;;;3.25;1.17;;;;;;;15.38;91.50;98785.69;8317319;28;20079;-57
2023/10/28 18:38:36;;;;;;;1.98;1.15;;;;;;;15.31;92.27;98773.91;8315867;28;20029;-57
2023/10/28 18:42:38;;;;;;;1.95;1.25;;;;;;;15.33;92.40;98773.69;8315689;28;20030;-57
2023/10/28 18:46:40;;;;;;;2.92;1.70;;;;;;;15.10;94.61;98757.81;8315702;28;20537;-57
2023/10/28 18:50:41;;;;;;;3.13;1.25;;;;;;;15.16;95.04;98756.16;8317128;28;20121;-57